Camden, Tennessee
Current Conditions -  °F | °C
As of 7:35 PM on Wednesday 22 Oct 2014 (Local Time) from KPHT Reporting Station
Clear Clear  
Wind Chill: 48°   Ceiling: Unl
Heat Index: 48°   Visibility: 10mi
Dew Point: 39°   Wind: 3mph
Humidity: 71%   Direction: 10°N
Pressure: 30.21"   Gusts: NA
Location:  36.06°N, 88.1°W
Report Text: KPHT 230035Z AUTO 01003KT 10SM CLR 09/04 A3021 RMK
Loading
Personal Weather Stations






























Interactive Weather Map
Tropical Storm Tracking
New forecast layout! Learn more

10-Day Weather Forecast

Advertisements
Track Severe Weather on mobile